createdAt,value
2023-02-09T00:00:07.792Z,49.29
2023-02-09T00:03:01.070Z,49.49
2023-02-09T00:05:29.651Z,49.01
2023-02-09T00:07:57.406Z,48.82
2023-02-09T00:10:25.600Z,48.03
2023-02-09T00:13:11.815Z,49.72
2023-02-09T00:15:40.915Z,49.47
2023-02-09T00:18:08.930Z,47.95
2023-02-09T00:20:38.242Z,47.78
2023-02-09T00:23:06.412Z,47.87
2023-02-09T00:25:34.683Z,48.00
2023-02-09T00:28:02.674Z,48.86
2023-02-09T00:30:31.337Z,49.01
2023-02-09T00:32:59.370Z,49.25
2023-02-09T00:35:27.823Z,49.49
2023-02-09T00:37:55.594Z,49.32
2023-02-09T00:40:23.897Z,49.46
2023-02-09T00:42:52.425Z,50.21
2023-02-09T00:45:20.931Z,49.34
2023-02-09T00:47:49.344Z,49.23
2023-02-09T00:50:17.641Z,48.84
2023-02-09T00:52:45.846Z,48.56
2023-02-09T00:55:14.042Z,48.83
2023-02-09T00:57:41.904Z,48.75
2023-02-09T01:00:12.280Z,48.93
2023-02-09T01:02:40.436Z,49.46
2023-02-09T01:05:09.917Z,48.58
2023-02-09T01:07:37.733Z,49.47
2023-02-09T01:10:06.258Z,48.81
2023-02-09T01:12:34.314Z,48.80
2023-02-09T01:15:04.961Z,48.03
2023-02-09T01:17:32.757Z,48.50
2023-02-09T01:20:01.755Z,48.70
2023-02-09T01:22:31.144Z,48.58
2023-02-09T01:25:01.001Z,48.75
2023-02-09T01:27:28.981Z,48.68
2023-02-09T01:29:57.243Z,49.00
2023-02-09T01:32:25.781Z,49.08
2023-02-09T01:34:54.686Z,48.71
2023-02-09T01:37:22.739Z,47.54
2023-02-09T01:39:51.382Z,47.77
2023-02-09T01:42:21.657Z,47.78
2023-02-09T01:45:46.400Z,47.71
2023-02-09T01:48:15.142Z,47.62
2023-02-09T01:50:49.076Z,47.68
2023-02-09T01:53:19.768Z,47.71
2023-02-09T01:55:54.462Z,47.82
2023-02-09T01:58:24.986Z,47.49
2023-02-09T02:00:53.461Z,47.89
2023-02-09T02:03:25.344Z,48.24
2023-02-09T02:05:59.358Z,47.90
2023-02-09T02:08:41.554Z,48.15
2023-02-09T02:11:10.189Z,48.17
2023-02-09T02:13:38.650Z,47.89
2023-02-09T02:16:24.918Z,47.98
2023-02-09T02:19:05.909Z,48.03
2023-02-09T02:22:02.182Z,47.81
2023-02-09T02:24:54.459Z,48.09
2023-02-09T02:27:29.554Z,48.88
2023-02-09T02:30:06.606Z,48.63
2023-02-09T02:32:41.077Z,48.66
2023-02-09T02:35:27.369Z,48.37
2023-02-09T02:38:13.614Z,48.85
2023-02-09T02:40:53.353Z,48.74
2023-02-09T02:43:45.928Z,48.93
2023-02-09T02:46:25.886Z,48.54
2023-02-09T02:49:15.301Z,49.12
2023-02-09T02:51:46.134Z,49.52
2023-02-09T02:54:18.633Z,49.62
2023-02-09T02:56:52.045Z,49.24
2023-02-09T02:59:25.699Z,48.78
2023-02-09T03:02:01.868Z,49.08
2023-02-09T03:04:31.603Z,50.12
2023-02-09T03:06:59.572Z,48.49
2023-02-09T03:09:27.696Z,49.29
2023-02-09T03:11:59.456Z,48.98
2023-02-09T03:14:34.845Z,48.61
2023-02-09T03:17:27.703Z,49.12
2023-02-09T03:20:02.713Z,48.48
2023-02-09T03:22:43.081Z,48.75
2023-02-09T03:25:27.870Z,48.41
2023-02-09T03:28:15.244Z,49.81
2023-02-09T03:30:46.910Z,49.62
2023-02-09T03:33:24.309Z,49.19
2023-02-09T03:35:56.486Z,49.97
2023-02-09T03:38:25.882Z,49.44
2023-02-09T03:40:55.515Z,48.93
2023-02-09T03:43:43.257Z,49.77
2023-02-09T03:46:11.599Z,49.98
2023-02-09T03:48:39.924Z,50.38
2023-02-09T03:51:08.243Z,49.88
2023-02-09T03:53:37.304Z,50.65
2023-02-09T03:56:08.314Z,49.59
2023-02-09T03:58:37.426Z,49.36
2023-02-09T04:01:08.164Z,50.13
2023-02-09T04:03:37.654Z,49.06
2023-02-09T04:06:06.236Z,49.91
2023-02-09T04:08:34.152Z,48.11
2023-02-09T04:11:02.521Z,48.90
2023-02-09T04:13:30.398Z,49.22
2023-02-09T04:15:58.576Z,49.07
2023-02-09T04:18:27.350Z,48.23
2023-02-09T04:20:55.734Z,48.73
2023-02-09T04:23:24.073Z,48.43
2023-02-09T04:25:53.591Z,47.54
2023-02-09T04:28:21.353Z,48.62
2023-02-09T04:30:54.702Z,47.92
2023-02-09T04:33:25.070Z,48.24
2023-02-09T04:35:53.832Z,47.85
2023-02-09T04:38:22.744Z,47.80
2023-02-09T04:40:54.109Z,48.46
2023-02-09T04:43:22.732Z,48.53
2023-02-09T04:45:51.316Z,48.53
2023-02-09T04:48:22.409Z,47.40
2023-02-09T04:50:51.353Z,47.36
2023-02-09T04:53:20.093Z,47.99
2023-02-09T04:55:49.183Z,48.04
2023-02-09T04:58:37.683Z,47.73
2023-02-09T05:01:06.759Z,48.04
2023-02-09T05:03:35.022Z,47.59
2023-02-09T05:06:06.341Z,47.16
2023-02-09T05:08:34.647Z,47.40
2023-02-09T05:11:02.774Z,47.81
2023-02-09T05:13:30.666Z,47.10
2023-02-09T05:15:59.032Z,47.54
2023-02-09T05:18:26.807Z,47.05
2023-02-09T05:20:54.995Z,47.50
2023-02-09T05:23:22.777Z,46.44
2023-02-09T05:25:50.956Z,46.11
2023-02-09T05:28:19.013Z,46.48
2023-02-09T05:30:49.201Z,46.06
2023-02-09T05:33:17.092Z,45.65
2023-02-09T05:35:45.678Z,45.95
2023-02-09T05:38:13.442Z,46.18
2023-02-09T05:40:43.497Z,46.22
2023-02-09T05:43:12.783Z,45.76
2023-02-09T05:45:40.949Z,46.45
2023-02-09T05:48:08.743Z,45.75
2023-02-09T05:50:37.729Z,45.45
2023-02-09T05:53:09.015Z,45.48
2023-02-09T05:55:37.574Z,45.47
2023-02-09T05:58:05.401Z,45.72
2023-02-09T06:00:34.295Z,45.81
2023-02-09T06:03:02.697Z,45.85
2023-02-09T06:05:31.243Z,45.23
2023-02-09T06:07:59.051Z,45.90
2023-02-09T06:10:28.096Z,44.71
2023-02-09T06:12:55.895Z,44.71
2023-02-09T06:15:24.114Z,45.04
2023-02-09T06:17:52.006Z,44.92
2023-02-09T06:20:20.608Z,45.04
2023-02-09T06:22:48.362Z,45.80
2023-02-09T06:25:17.255Z,45.84
2023-02-09T06:27:45.018Z,44.62
2023-02-09T06:30:13.733Z,45.47
2023-02-09T06:32:41.749Z,45.53
2023-02-09T06:35:10.001Z,45.74
2023-02-09T06:37:37.830Z,45.65
2023-02-09T06:40:06.611Z,45.14
2023-02-09T06:42:46.674Z,44.83
2023-02-09T06:45:16.972Z,44.45
2023-02-09T06:47:46.293Z,43.63
2023-02-09T06:50:17.779Z,43.60
2023-02-09T06:52:45.873Z,44.35
2023-02-09T06:55:14.794Z,44.74
2023-02-09T06:57:42.690Z,44.31
2023-02-09T07:00:12.595Z,43.71
2023-02-09T07:02:43.486Z,45.52
2023-02-09T07:05:12.812Z,44.34
2023-02-09T07:07:41.289Z,45.29
2023-02-09T07:10:12.553Z,45.91
2023-02-09T07:12:41.031Z,45.46
2023-02-09T07:15:09.903Z,45.15
2023-02-09T07:17:37.781Z,44.76
2023-02-09T07:20:07.399Z,44.49
2023-02-09T07:22:35.851Z,44.97
2023-02-09T07:25:04.425Z,44.71
2023-02-09T07:27:32.368Z,44.62
2023-02-09T07:30:01.150Z,44.30
2023-02-09T07:32:30.394Z,44.39
2023-02-09T07:34:59.078Z,43.61
2023-02-09T07:37:26.974Z,43.44
2023-02-09T07:39:55.409Z,44.02
2023-02-09T07:42:23.494Z,43.87
2023-02-09T07:44:58.827Z,44.08
2023-02-09T07:47:26.744Z,42.87
2023-02-09T07:49:54.863Z,43.40
2023-02-09T07:52:22.681Z,44.05
2023-02-09T07:54:51.747Z,43.26
2023-02-09T07:57:19.749Z,42.66
2023-02-09T07:59:47.952Z,43.05
2023-02-09T08:02:31.698Z,43.11
2023-02-09T08:05:01.187Z,42.99
2023-02-09T08:07:31.740Z,43.65
2023-02-09T08:09:59.871Z,43.98
2023-02-09T08:12:50.175Z,43.48
2023-02-09T08:15:21.961Z,43.26
2023-02-09T08:17:54.408Z,43.43
2023-02-09T08:20:28.925Z,44.31
2023-02-09T08:23:04.328Z,43.36
2023-02-09T08:25:34.523Z,43.20
2023-02-09T08:28:04.008Z,42.63
2023-02-09T08:30:36.424Z,42.24
2023-02-09T08:33:04.714Z,41.99
2023-02-09T08:35:33.338Z,42.73
2023-02-09T08:38:02.796Z,43.16
2023-02-09T08:40:32.417Z,41.69
2023-02-09T08:43:02.581Z,42.41
2023-02-09T08:45:30.934Z,41.82
2023-02-09T08:47:58.856Z,41.76
2023-02-09T08:50:27.045Z,42.05
2023-02-09T08:52:57.092Z,42.94
2023-02-09T08:55:25.735Z,42.45
2023-02-09T08:57:54.857Z,41.89
2023-02-09T09:00:23.085Z,42.29
2023-02-09T09:02:51.164Z,42.11
2023-02-09T09:05:19.388Z,41.20
2023-02-09T09:07:47.656Z,41.36
2023-02-09T09:10:16.104Z,40.96
2023-02-09T09:12:44.848Z,40.29
2023-02-09T09:15:13.020Z,40.80
2023-02-09T09:17:41.044Z,40.85
2023-02-09T09:20:09.617Z,40.94
2023-02-09T09:22:37.917Z,41.01
2023-02-09T09:25:07.992Z,41.61
2023-02-09T09:27:36.449Z,41.63
2023-02-09T09:30:06.068Z,40.88
2023-02-09T09:32:35.052Z,40.63
2023-02-09T09:35:03.752Z,40.03
2023-02-09T09:37:34.939Z,41.19
2023-02-09T09:40:04.744Z,40.10
2023-02-09T09:42:39.631Z,40.16
2023-02-09T09:45:14.871Z,40.23
2023-02-09T09:47:46.509Z,40.87
2023-02-09T09:50:23.995Z,41.46
2023-02-09T09:53:33.145Z,41.09
2023-02-09T09:56:05.769Z,40.24
2023-02-09T09:58:39.590Z,40.63
2023-02-09T10:01:18.303Z,39.50
2023-02-09T10:03:49.658Z,38.90
2023-02-09T10:06:21.583Z,40.01
2023-02-09T10:09:07.371Z,39.68
2023-02-09T10:11:43.750Z,40.53
2023-02-09T10:14:12.202Z,40.12
2023-02-09T10:16:43.543Z,40.03
2023-02-09T10:19:31.723Z,40.30
2023-02-09T10:22:01.097Z,39.12
2023-02-09T10:24:33.440Z,38.76
2023-02-09T10:27:20.388Z,39.25
2023-02-09T10:29:49.346Z,38.84
2023-02-09T10:32:24.104Z,38.50
2023-02-09T10:35:04.859Z,39.31
2023-02-09T10:37:40.087Z,39.19
2023-02-09T10:40:18.145Z,38.48
2023-02-09T10:42:58.826Z,39.33
2023-02-09T10:45:37.562Z,38.35
2023-02-09T10:48:20.599Z,37.95
2023-02-09T10:50:55.711Z,42.03
2023-02-09T10:53:31.104Z,38.81
2023-02-09T10:56:04.219Z,40.04
2023-02-09T10:58:35.892Z,39.65
2023-02-09T11:01:09.816Z,38.88
2023-02-09T11:03:56.733Z,40.00
2023-02-09T11:06:24.728Z,39.34
2023-02-09T11:09:00.806Z,39.49
2023-02-09T11:11:32.719Z,39.28
2023-02-09T11:14:01.324Z,39.91
2023-02-09T11:16:47.851Z,38.80
2023-02-09T11:19:48.046Z,39.27
2023-02-09T11:22:22.205Z,39.25
2023-02-09T11:25:18.987Z,39.26
2023-02-09T11:28:13.266Z,39.30
2023-02-09T11:31:15.662Z,37.75
2023-02-09T11:34:14.282Z,36.56
2023-02-09T11:37:07.541Z,37.35
2023-02-09T11:39:44.883Z,36.73
2023-02-09T11:42:37.550Z,37.11
2023-02-09T11:45:11.451Z,37.47
2023-02-09T11:48:01.373Z,36.76
2023-02-09T11:50:34.846Z,36.78
2023-02-09T11:53:12.382Z,37.35
2023-02-09T11:55:47.233Z,38.72
2023-02-09T11:58:43.519Z,37.75
2023-02-09T12:01:20.811Z,38.45
2023-02-09T12:04:16.002Z,37.62
2023-02-09T12:06:49.186Z,37.88
2023-02-09T12:09:31.420Z,38.43
2023-02-09T12:12:10.854Z,38.18
2023-02-09T12:14:50.989Z,38.42
2023-02-09T12:18:01.493Z,37.93
2023-02-09T12:20:39.812Z,38.56
2023-02-09T12:23:11.503Z,39.40
2023-02-09T12:26:01.028Z,39.65
2023-02-09T12:28:32.611Z,39.63
2023-02-09T12:31:06.098Z,39.74
2023-02-09T12:33:41.480Z,38.26
2023-02-09T12:36:10.049Z,38.42
2023-02-09T12:39:04.565Z,39.23
2023-02-09T12:41:41.096Z,40.03
2023-02-09T12:44:12.148Z,39.90
2023-02-09T12:46:48.916Z,40.65
2023-02-09T12:49:20.316Z,39.95
2023-02-09T12:51:54.603Z,40.58
2023-02-09T12:54:43.614Z,40.18
2023-02-09T12:57:18.226Z,40.67
2023-02-09T13:00:00.982Z,40.38
2023-02-09T13:02:50.388Z,40.17
2023-02-09T13:05:28.592Z,39.81
2023-02-09T13:08:11.749Z,39.78
2023-02-09T13:11:03.513Z,40.38
2023-02-09T13:13:47.550Z,40.56
2023-02-09T13:16:43.371Z,40.66
2023-02-09T13:19:46.807Z,40.24
2023-02-09T13:22:25.600Z,40.55
2023-02-09T13:25:00.983Z,40.78
2023-02-09T13:27:30.516Z,40.18
2023-02-09T13:29:59.997Z,40.77
2023-02-09T13:32:42.465Z,40.53
2023-02-09T13:35:31.929Z,41.31
2023-02-09T13:38:01.297Z,40.79
2023-02-09T13:40:35.497Z,41.01
2023-02-09T13:43:28.547Z,40.58
2023-02-09T13:45:59.017Z,40.86
2023-02-09T13:48:38.826Z,40.22
2023-02-09T13:51:19.450Z,40.79
2023-02-09T13:54:05.372Z,40.74
2023-02-09T13:56:38.008Z,40.62
2023-02-09T13:59:06.329Z,41.54
2023-02-09T14:01:37.246Z,41.04
2023-02-09T14:04:33.845Z,41.17
2023-02-09T14:07:08.811Z,42.12
2023-02-09T14:09:55.223Z,42.45
2023-02-09T14:13:03.488Z,42.74
2023-02-09T14:15:55.956Z,43.37
2023-02-09T14:18:28.650Z,42.61
2023-02-09T14:21:17.114Z,43.22
2023-02-09T14:24:04.596Z,44.23
2023-02-09T14:27:11.203Z,44.72
2023-02-09T14:29:46.641Z,44.67
2023-02-09T14:32:36.083Z,45.93
2023-02-09T14:35:32.059Z,46.50
2023-02-09T14:38:02.669Z,46.45
2023-02-09T14:40:34.546Z,47.34
2023-02-09T14:43:11.662Z,46.99
2023-02-09T14:45:58.751Z,47.89
2023-02-09T14:48:30.277Z,47.38
2023-02-09T14:51:11.576Z,47.46
2023-02-09T14:53:43.133Z,47.63
2023-02-09T14:56:30.710Z,47.37
2023-02-09T14:58:59.538Z,46.65
2023-02-09T15:01:27.765Z,46.88
2023-02-09T15:03:55.526Z,46.95
2023-02-09T15:06:24.573Z,47.75
2023-02-09T15:08:52.313Z,47.69
2023-02-09T15:11:42.860Z,48.14
2023-02-09T15:14:11.595Z,47.93
2023-02-09T15:16:40.061Z,47.91
2023-02-09T15:19:22.987Z,48.08
2023-02-09T15:22:06.262Z,48.14
2023-02-09T15:24:36.426Z,47.97
2023-02-09T15:27:04.873Z,48.05
2023-02-09T15:29:34.739Z,48.22
2023-02-09T15:32:03.309Z,49.03
2023-02-09T15:34:31.774Z,49.01
2023-02-09T15:37:00.291Z,49.34
2023-02-09T15:39:31.928Z,49.04
2023-02-09T15:42:19.550Z,48.80
2023-02-09T15:45:27.274Z,48.28
2023-02-09T15:47:56.914Z,47.77
2023-02-09T15:50:28.248Z,48.44
2023-02-09T15:52:58.653Z,48.16
2023-02-09T15:55:27.839Z,48.38
2023-02-09T15:57:57.222Z,48.09
2023-02-09T16:00:28.240Z,48.79
2023-02-09T16:03:01.713Z,48.53
2023-02-09T16:05:31.377Z,48.35
2023-02-09T16:08:00.445Z,47.90
2023-02-09T16:10:30.532Z,47.83
2023-02-09T16:13:00.159Z,48.58
2023-02-09T16:15:28.315Z,47.93
2023-02-09T16:17:56.624Z,47.25
2023-02-09T16:20:26.296Z,48.26
2023-02-09T16:23:11.708Z,47.66
2023-02-09T16:25:52.624Z,47.71
2023-02-09T16:28:24.781Z,47.17
2023-02-09T16:30:58.581Z,48.25
2023-02-09T16:33:29.822Z,47.16
2023-02-09T16:36:04.690Z,48.10
2023-02-09T16:38:36.729Z,47.41
2023-02-09T16:41:27.940Z,47.32
2023-02-09T16:44:00.614Z,48.06
2023-02-09T16:46:33.565Z,47.40
2023-02-09T16:49:05.662Z,47.64
2023-02-09T16:51:37.254Z,47.40
2023-02-09T16:54:11.571Z,47.85
2023-02-09T16:56:54.097Z,48.84
2023-02-09T16:59:26.600Z,49.27
2023-02-09T17:02:01.043Z,48.90
2023-02-09T17:04:30.788Z,48.69
2023-02-09T17:06:58.585Z,48.60
2023-02-09T17:09:26.849Z,48.89
2023-02-09T17:11:54.750Z,48.95
2023-02-09T17:14:22.831Z,48.77
2023-02-09T17:16:51.014Z,49.01
2023-02-09T17:19:19.632Z,50.15
2023-02-09T17:21:47.649Z,49.87
2023-02-09T17:24:17.524Z,49.75
2023-02-09T17:26:45.662Z,49.71
2023-02-09T17:29:14.042Z,49.49
2023-02-09T17:31:52.802Z,50.54
2023-02-09T17:34:27.408Z,50.72
2023-02-09T17:36:57.164Z,50.52
2023-02-09T17:39:25.537Z,51.29
2023-02-09T17:41:53.456Z,51.07
2023-02-09T17:44:43.687Z,50.15
2023-02-09T17:47:17.214Z,51.36
2023-02-09T17:49:45.685Z,51.71
2023-02-09T17:52:18.925Z,51.11
2023-02-09T17:54:48.425Z,51.86
2023-02-09T17:57:17.654Z,50.90
2023-02-09T17:59:47.152Z,51.18
2023-02-09T18:02:17.821Z,51.46
2023-02-09T18:04:46.434Z,51.88
2023-02-09T18:07:20.767Z,51.97
2023-02-09T18:09:49.096Z,54.34
2023-02-09T18:12:22.193Z,55.75
2023-02-09T18:14:50.543Z,55.71
2023-02-09T18:17:19.062Z,56.86
2023-02-09T18:19:47.336Z,58.37
2023-02-09T18:22:20.326Z,59.06
2023-02-09T18:24:49.859Z,59.70
2023-02-09T18:27:19.682Z,59.42
2023-02-09T18:29:47.882Z,59.90
2023-02-09T18:32:17.293Z,59.40
2023-02-09T18:34:45.598Z,60.24
2023-02-09T18:37:16.638Z,60.89
2023-02-09T18:39:46.960Z,60.68
2023-02-09T18:42:16.553Z,60.87
2023-02-09T18:44:44.969Z,60.64
2023-02-09T18:47:12.896Z,60.12
2023-02-09T18:49:41.425Z,60.58
2023-02-09T18:52:10.546Z,59.03
2023-02-09T18:54:38.888Z,59.41
2023-02-09T18:57:06.798Z,59.88
2023-02-09T18:59:36.515Z,59.31
2023-02-09T19:02:04.554Z,60.11
2023-02-09T19:04:32.632Z,60.73
2023-02-09T19:07:00.715Z,61.83
2023-02-09T19:09:28.934Z,61.36
2023-02-09T19:11:56.693Z,62.07
2023-02-09T19:14:40.107Z,62.80
2023-02-09T19:17:13.900Z,62.80
2023-02-09T19:19:43.064Z,63.31
2023-02-09T19:22:14.071Z,63.16
2023-02-09T19:24:43.344Z,63.35
2023-02-09T19:27:12.210Z,62.82
2023-02-09T19:29:41.637Z,63.03
2023-02-09T19:32:11.340Z,63.43
2023-02-09T19:34:41.301Z,62.37
2023-02-09T19:37:13.674Z,64.02
2023-02-09T19:39:42.188Z,63.79
2023-02-09T19:42:10.401Z,63.81
2023-02-09T19:44:38.803Z,62.76
2023-02-09T19:47:07.228Z,63.21
2023-02-09T19:49:35.511Z,63.03
2023-02-09T19:52:03.439Z,63.20
2023-02-09T19:54:32.874Z,63.34
2023-02-09T19:57:01.047Z,64.77
2023-02-09T19:59:31.527Z,63.46
2023-02-09T20:01:59.454Z,63.81
2023-02-09T20:04:27.672Z,64.01
2023-02-09T20:06:55.619Z,63.87
2023-02-09T20:09:23.783Z,64.01
2023-02-09T20:11:51.565Z,64.43
2023-02-09T20:14:20.006Z,65.68
2023-02-09T20:16:48.742Z,66.16
2023-02-09T20:19:18.595Z,66.19
2023-02-09T20:21:47.703Z,66.95
2023-02-09T20:24:17.053Z,66.09
2023-02-09T20:26:46.226Z,65.97
2023-02-09T20:29:17.050Z,65.95
2023-02-09T20:31:44.967Z,65.40
2023-02-09T20:34:15.310Z,65.82
2023-02-09T20:36:47.344Z,67.49
2023-02-09T20:39:16.810Z,66.50
2023-02-09T20:42:06.926Z,66.58
2023-02-09T20:44:55.930Z,66.83
2023-02-09T20:47:26.403Z,65.65
2023-02-09T20:49:57.453Z,65.62
2023-02-09T20:52:25.444Z,65.77
2023-02-09T20:54:54.055Z,65.61
2023-02-09T20:57:25.363Z,65.00
2023-02-09T20:59:55.411Z,65.44
2023-02-09T21:02:23.639Z,65.64
2023-02-09T21:04:55.272Z,65.38
2023-02-09T21:07:25.491Z,66.95
2023-02-09T21:09:55.289Z,66.36
2023-02-09T21:12:23.471Z,66.42
2023-02-09T21:14:51.862Z,66.10
2023-02-09T21:17:21.539Z,66.70
2023-02-09T21:19:50.511Z,65.53
2023-02-09T21:22:18.474Z,65.38
2023-02-09T21:24:46.626Z,66.27
2023-02-09T21:27:14.782Z,65.32
2023-02-09T21:29:42.945Z,65.57
2023-02-09T21:32:11.854Z,66.43
2023-02-09T21:34:41.089Z,65.80
2023-02-09T21:37:13.162Z,65.50
2023-02-09T21:39:43.418Z,65.39
2023-02-09T21:42:27.233Z,65.08
2023-02-09T21:44:59.760Z,65.41
2023-02-09T21:47:32.829Z,65.41
2023-02-09T21:50:05.216Z,64.64
2023-02-09T21:52:38.167Z,64.05
2023-02-09T21:55:10.947Z,64.87
2023-02-09T21:57:49.935Z,65.33
2023-02-09T22:00:20.595Z,65.15
2023-02-09T22:03:01.172Z,64.70
2023-02-09T22:05:34.757Z,65.13
2023-02-09T22:08:08.027Z,64.58
2023-02-09T22:10:40.621Z,64.38
2023-02-09T22:13:12.445Z,63.24
2023-02-09T22:15:47.126Z,62.67
2023-02-09T22:18:24.162Z,62.84
2023-02-09T22:20:57.927Z,63.37
2023-02-09T22:23:30.636Z,63.41
2023-02-09T22:26:06.336Z,63.33
2023-02-09T22:28:40.996Z,62.82
2023-02-09T22:31:23.411Z,62.95
2023-02-09T22:33:56.467Z,63.31
2023-02-09T22:36:30.759Z,64.46
2023-02-09T22:39:09.411Z,63.83
2023-02-09T22:41:46.637Z,64.84
2023-02-09T22:44:20.498Z,65.01
2023-02-09T22:46:53.816Z,64.36
2023-02-09T22:49:26.898Z,63.87
2023-02-09T22:52:00.958Z,63.21
2023-02-09T22:54:32.556Z,63.09
2023-02-09T22:57:06.190Z,62.24
2023-02-09T22:59:37.833Z,63.45
2023-02-09T23:02:12.696Z,63.48
2023-02-09T23:04:45.103Z,63.00
2023-02-09T23:07:18.600Z,63.46
2023-02-09T23:09:51.273Z,63.61
2023-02-09T23:12:23.547Z,62.88
2023-02-09T23:14:57.959Z,63.43
2023-02-09T23:17:30.847Z,64.59
2023-02-09T23:20:05.326Z,64.52
2023-02-09T23:22:35.044Z,63.19
2023-02-09T23:25:02.953Z,64.47
2023-02-09T23:27:33.278Z,64.84
2023-02-09T23:30:01.291Z,64.42
2023-02-09T23:32:31.049Z,65.19
2023-02-09T23:37:37.143Z,64.22
2023-02-09T23:40:06.415Z,64.11
2023-02-09T23:42:34.541Z,64.24
2023-02-09T23:45:02.315Z,65.11
2023-02-09T23:47:31.063Z,65.38
2023-02-09T23:49:59.035Z,63.69
2023-02-09T23:52:27.155Z,63.82
2023-02-09T23:54:56.101Z,64.67
2023-02-09T23:57:24.855Z,64.91
2023-02-09T23:59:52.667Z,64.33
